sensor_id;sensor_type;location;lat;lon;timestamp;temperature;humidity
35645;DHT22;21764;52.042;6.830;2023-02-18T00:04:39;9.30;99.90
35645;DHT22;21764;52.042;6.830;2023-02-18T00:09:40;9.10;99.90
35645;DHT22;21764;52.042;6.830;2023-02-18T00:14:42;9.30;99.90
35645;DHT22;21764;52.042;6.830;2023-02-18T00:19:42;9.50;99.90
35645;DHT22;21764;52.042;6.830;2023-02-18T00:24:43;9.60;99.90
35645;DHT22;21764;52.042;6.830;2023-02-18T00:29:44;9.70;99.90
35645;DHT22;21764;52.042;6.830;2023-02-18T00:34:44;9.70;99.90
35645;DHT22;21764;52.042;6.830;2023-02-18T00:39:45;9.80;99.90
35645;DHT22;21764;52.042;6.830;2023-02-18T00:44:46;9.80;99.90
35645;DHT22;21764;52.042;6.830;2023-02-18T00:49:46;9.80;99.90
35645;DHT22;21764;52.042;6.830;2023-02-18T00:54:47;9.80;99.90
35645;DHT22;21764;52.042;6.830;2023-02-18T00:59:49;9.90;99.90
35645;DHT22;21764;52.042;6.830;2023-02-18T01:04:50;9.90;99.90
35645;DHT22;21764;52.042;6.830;2023-02-18T01:09:50;10.00;99.90
35645;DHT22;21764;52.042;6.830;2023-02-18T01:14:51;9.90;99.90
35645;DHT22;21764;52.042;6.830;2023-02-18T01:19:51;10.00;99.90
35645;DHT22;21764;52.042;6.830;2023-02-18T01:24:52;10.00;99.90
35645;DHT22;21764;52.042;6.830;2023-02-18T01:29:53;10.00;99.90
35645;DHT22;21764;52.042;6.830;2023-02-18T01:34:53;10.10;99.90
35645;DHT22;21764;52.042;6.830;2023-02-18T01:39:54;10.10;99.90
35645;DHT22;21764;52.042;6.830;2023-02-18T01:50:41;10.10;99.90
35645;DHT22;21764;52.042;6.830;2023-02-18T01:55:42;10.10;99.90
35645;DHT22;21764;52.042;6.830;2023-02-18T02:00:43;10.10;99.90
35645;DHT22;21764;52.042;6.830;2023-02-18T02:05:44;10.10;99.90
35645;DHT22;21764;52.042;6.830;2023-02-18T02:11:17;10.10;99.90
35645;DHT22;21764;52.042;6.830;2023-02-18T02:16:49;10.10;99.90
35645;DHT22;21764;52.042;6.830;2023-02-18T02:38:54;10.00;99.90
35645;DHT22;21764;52.042;6.830;2023-02-18T02:49:58;10.10;99.90
35645;DHT22;21764;52.042;6.830;2023-02-18T02:54:39;10.10;99.90
35645;DHT22;21764;52.042;6.830;2023-02-18T02:59:43;10.10;99.90
35645;DHT22;21764;52.042;6.830;2023-02-18T03:11:03;10.10;99.90
35645;DHT22;21764;52.042;6.830;2023-02-18T03:16:34;10.10;99.90
35645;DHT22;21764;52.042;6.830;2023-02-18T03:21:38;10.10;99.90
35645;DHT22;21764;52.042;6.830;2023-02-18T03:26:46;10.10;99.90
35645;DHT22;21764;52.042;6.830;2023-02-18T03:31:51;10.10;99.90
35645;DHT22;21764;52.042;6.830;2023-02-18T03:36:54;10.10;99.90
35645;DHT22;21764;52.042;6.830;2023-02-18T03:41:56;10.10;99.90
35645;DHT22;21764;52.042;6.830;2023-02-18T03:46:57;10.10;99.90
35645;DHT22;21764;52.042;6.830;2023-02-18T03:51:57;10.20;99.90
35645;DHT22;21764;52.042;6.830;2023-02-18T03:56:58;10.20;99.90
35645;DHT22;21764;52.042;6.830;2023-02-18T04:02:01;10.20;99.90
35645;DHT22;21764;52.042;6.830;2023-02-18T04:07:02;10.20;99.90
35645;DHT22;21764;52.042;6.830;2023-02-18T04:12:06;10.20;99.90
35645;DHT22;21764;52.042;6.830;2023-02-18T04:17:06;10.30;99.90
35645;DHT22;21764;52.042;6.830;2023-02-18T04:22:07;10.30;99.90
35645;DHT22;21764;52.042;6.830;2023-02-18T04:27:08;10.30;99.90
35645;DHT22;21764;52.042;6.830;2023-02-18T04:32:08;10.30;99.90
35645;DHT22;21764;52.042;6.830;2023-02-18T04:37:09;10.30;99.90
35645;DHT22;21764;52.042;6.830;2023-02-18T04:42:09;10.30;99.90
35645;DHT22;21764;52.042;6.830;2023-02-18T04:47:10;10.30;99.90
35645;DHT22;21764;52.042;6.830;2023-02-18T04:52:11;10.30;99.90
35645;DHT22;21764;52.042;6.830;2023-02-18T04:57:11;10.30;99.90
35645;DHT22;21764;52.042;6.830;2023-02-18T05:02:12;10.30;99.90
35645;DHT22;21764;52.042;6.830;2023-02-18T05:07:12;10.30;99.90
35645;DHT22;21764;52.042;6.830;2023-02-18T05:12:13;10.40;99.90
35645;DHT22;21764;52.042;6.830;2023-02-18T05:17:14;10.30;99.90
35645;DHT22;21764;52.042;6.830;2023-02-18T05:22:14;10.30;99.90
35645;DHT22;21764;52.042;6.830;2023-02-18T05:27:16;10.30;99.90
35645;DHT22;21764;52.042;6.830;2023-02-18T05:32:17;10.30;99.90
35645;DHT22;21764;52.042;6.830;2023-02-18T05:37:18;10.30;99.90
35645;DHT22;21764;52.042;6.830;2023-02-18T05:42:18;10.30;99.90
35645;DHT22;21764;52.042;6.830;2023-02-18T05:47:20;10.30;99.90
35645;DHT22;21764;52.042;6.830;2023-02-18T05:52:21;10.30;99.90
35645;DHT22;21764;52.042;6.830;2023-02-18T05:57:23;10.30;99.90
35645;DHT22;21764;52.042;6.830;2023-02-18T06:02:24;10.30;99.90
35645;DHT22;21764;52.042;6.830;2023-02-18T06:07:25;10.30;99.90
35645;DHT22;21764;52.042;6.830;2023-02-18T06:12:25;10.30;99.90
35645;DHT22;21764;52.042;6.830;2023-02-18T06:17:26;10.30;99.90
35645;DHT22;21764;52.042;6.830;2023-02-18T06:22:27;10.30;99.90
35645;DHT22;21764;52.042;6.830;2023-02-18T06:27:29;10.30;99.90
35645;DHT22;21764;52.042;6.830;2023-02-18T06:32:29;10.30;99.90
35645;DHT22;21764;52.042;6.830;2023-02-18T06:37:31;10.30;99.90
35645;DHT22;21764;52.042;6.830;2023-02-18T06:42:32;10.30;99.90
35645;DHT22;21764;52.042;6.830;2023-02-18T06:47:33;10.30;99.90
35645;DHT22;21764;52.042;6.830;2023-02-18T06:52:34;10.30;99.90
35645;DHT22;21764;52.042;6.830;2023-02-18T06:57:37;10.30;99.90
35645;DHT22;21764;52.042;6.830;2023-02-18T07:02:38;10.30;99.90
35645;DHT22;21764;52.042;6.830;2023-02-18T07:07:38;10.40;99.90
35645;DHT22;21764;52.042;6.830;2023-02-18T07:12:39;10.30;99.90
35645;DHT22;21764;52.042;6.830;2023-02-18T07:17:40;10.40;99.90
35645;DHT22;21764;52.042;6.830;2023-02-18T07:22:40;10.40;99.90
35645;DHT22;21764;52.042;6.830;2023-02-18T07:27:41;10.40;99.90
35645;DHT22;21764;52.042;6.830;2023-02-18T07:32:42;10.40;99.90
35645;DHT22;21764;52.042;6.830;2023-02-18T07:37:46;10.40;99.90
35645;DHT22;21764;52.042;6.830;2023-02-18T07:42:48;10.40;99.90
35645;DHT22;21764;52.042;6.830;2023-02-18T07:47:48;10.50;99.90
35645;DHT22;21764;52.042;6.830;2023-02-18T07:52:49;10.50;99.90
35645;DHT22;21764;52.042;6.830;2023-02-18T07:57:49;10.50;99.90
35645;DHT22;21764;52.042;6.830;2023-02-18T08:03:01;10.60;99.90
35645;DHT22;21764;52.042;6.830;2023-02-18T08:08:02;10.60;99.90
35645;DHT22;21764;52.042;6.830;2023-02-18T08:13:03;10.60;99.90
35645;DHT22;21764;52.042;6.830;2023-02-18T08:18:05;10.60;99.90
35645;DHT22;21764;52.042;6.830;2023-02-18T08:23:05;10.60;99.90
35645;DHT22;21764;52.042;6.830;2023-02-18T08:28:06;10.70;99.90
35645;DHT22;21764;52.042;6.830;2023-02-18T08:33:07;10.60;99.90
35645;DHT22;21764;52.042;6.830;2023-02-18T08:38:07;10.60;99.90
35645;DHT22;21764;52.042;6.830;2023-02-18T08:43:08;10.60;99.90
35645;DHT22;21764;52.042;6.830;2023-02-18T08:48:13;10.60;99.90
35645;DHT22;21764;52.042;6.830;2023-02-18T08:53:16;10.50;99.90
35645;DHT22;21764;52.042;6.830;2023-02-18T08:58:16;10.50;99.90
35645;DHT22;21764;52.042;6.830;2023-02-18T09:03:17;10.50;99.90
35645;DHT22;21764;52.042;6.830;2023-02-18T09:08:18;10.60;99.90
35645;DHT22;21764;52.042;6.830;2023-02-18T09:13:18;10.50;99.90
35645;DHT22;21764;52.042;6.830;2023-02-18T09:18:19;10.60;99.90
35645;DHT22;21764;52.042;6.830;2023-02-18T09:23:20;10.50;99.90
35645;DHT22;21764;52.042;6.830;2023-02-18T09:28:20;10.50;99.90
35645;DHT22;21764;52.042;6.830;2023-02-18T09:33:21;10.40;99.90
35645;DHT22;21764;52.042;6.830;2023-02-18T09:38:22;10.50;99.90
35645;DHT22;21764;52.042;6.830;2023-02-18T09:43:29;10.50;99.90
35645;DHT22;21764;52.042;6.830;2023-02-18T09:48:34;10.50;99.90
35645;DHT22;21764;52.042;6.830;2023-02-18T09:53:35;10.60;99.90
35645;DHT22;21764;52.042;6.830;2023-02-18T09:58:36;10.40;99.90
35645;DHT22;21764;52.042;6.830;2023-02-18T10:03:37;10.50;99.90
35645;DHT22;21764;52.042;6.830;2023-02-18T10:08:49;10.40;99.90
35645;DHT22;21764;52.042;6.830;2023-02-18T10:13:53;10.50;99.90
35645;DHT22;21764;52.042;6.830;2023-02-18T10:19:00;10.40;99.90
35645;DHT22;21764;52.042;6.830;2023-02-18T10:24:24;10.30;99.90
35645;DHT22;21764;52.042;6.830;2023-02-18T10:29:27;10.30;99.90
35645;DHT22;21764;52.042;6.830;2023-02-18T10:55:02;10.50;99.90
35645;DHT22;21764;52.042;6.830;2023-02-18T11:00:22;10.40;99.90
35645;DHT22;21764;52.042;6.830;2023-02-18T11:05:27;10.40;99.90
35645;DHT22;21764;52.042;6.830;2023-02-18T11:10:38;10.40;99.90
35645;DHT22;21764;52.042;6.830;2023-02-18T11:21:02;10.60;99.90
35645;DHT22;21764;52.042;6.830;2023-02-18T11:26:06;10.60;99.90
35645;DHT22;21764;52.042;6.830;2023-02-18T11:31:16;10.50;99.90
35645;DHT22;21764;52.042;6.830;2023-02-18T11:36:21;10.70;99.90
35645;DHT22;21764;52.042;6.830;2023-02-18T11:41:33;10.90;99.90
35645;DHT22;21764;52.042;6.830;2023-02-18T11:46:34;11.00;99.90
35645;DHT22;21764;52.042;6.830;2023-02-18T11:51:35;11.30;99.90
35645;DHT22;21764;52.042;6.830;2023-02-18T11:56:39;11.50;99.90
35645;DHT22;21764;52.042;6.830;2023-02-18T12:01:46;11.70;99.90
35645;DHT22;21764;52.042;6.830;2023-02-18T12:12:06;11.50;99.90
35645;DHT22;21764;52.042;6.830;2023-02-18T12:28:26;11.40;99.90
35645;DHT22;21764;52.042;6.830;2023-02-18T12:55:24;11.10;99.90
35645;DHT22;21764;52.042;6.830;2023-02-18T13:00:37;11.10;99.90
35645;DHT22;21764;52.042;6.830;2023-02-18T13:16:43;11.20;99.90
35645;DHT22;21764;52.042;6.830;2023-02-18T13:21:48;11.30;99.90
35645;DHT22;21764;52.042;6.830;2023-02-18T13:26:55;11.30;99.90
35645;DHT22;21764;52.042;6.830;2023-02-18T13:47:44;11.50;99.90
35645;DHT22;21764;52.042;6.830;2023-02-18T13:52:45;11.20;99.90
35645;DHT22;21764;52.042;6.830;2023-02-18T13:57:52;11.30;99.90
35645;DHT22;21764;52.042;6.830;2023-02-18T14:08:32;11.30;99.90
35645;DHT22;21764;52.042;6.830;2023-02-18T14:23:56;11.30;99.90
35645;DHT22;21764;52.042;6.830;2023-02-18T14:40:06;11.20;99.90
35645;DHT22;21764;52.042;6.830;2023-02-18T14:50:49;11.00;99.90
35645;DHT22;21764;52.042;6.830;2023-02-18T14:56:01;10.90;99.90
35645;DHT22;21764;52.042;6.830;2023-02-18T15:06:39;11.00;99.90
35645;DHT22;21764;52.042;6.830;2023-02-18T15:11:46;10.90;99.90
35645;DHT22;21764;52.042;6.830;2023-02-18T15:16:48;11.10;99.90
35645;DHT22;21764;52.042;6.830;2023-02-18T15:21:50;11.20;99.90
35645;DHT22;21764;52.042;6.830;2023-02-18T15:26:55;11.20;99.90
35645;DHT22;21764;52.042;6.830;2023-02-18T15:31:57;11.20;99.90
35645;DHT22;21764;52.042;6.830;2023-02-18T15:36:59;11.20;99.90
35645;DHT22;21764;52.042;6.830;2023-02-18T15:42:30;11.20;99.90
35645;DHT22;21764;52.042;6.830;2023-02-18T15:47:32;11.10;99.90
35645;DHT22;21764;52.042;6.830;2023-02-18T15:52:37;11.00;99.90
35645;DHT22;21764;52.042;6.830;2023-02-18T15:57:38;10.90;99.90
35645;DHT22;21764;52.042;6.830;2023-02-18T16:02:53;10.90;99.90
35645;DHT22;21764;52.042;6.830;2023-02-18T16:08:05;10.90;99.90
35645;DHT22;21764;52.042;6.830;2023-02-18T16:13:06;10.80;99.90
35645;DHT22;21764;52.042;6.830;2023-02-18T16:18:27;10.80;99.90
35645;DHT22;21764;52.042;6.830;2023-02-18T16:23:40;10.80;99.90
35645;DHT22;21764;52.042;6.830;2023-02-18T16:28:42;10.70;99.90
35645;DHT22;21764;52.042;6.830;2023-02-18T16:33:43;10.60;99.90
35645;DHT22;21764;52.042;6.830;2023-02-18T16:38:44;10.70;99.90
35645;DHT22;21764;52.042;6.830;2023-02-18T16:43:44;10.60;99.90
35645;DHT22;21764;52.042;6.830;2023-02-18T16:48:48;10.60;99.90
35645;DHT22;21764;52.042;6.830;2023-02-18T16:53:49;10.60;99.90
35645;DHT22;21764;52.042;6.830;2023-02-18T16:58:50;10.60;99.90
35645;DHT22;21764;52.042;6.830;2023-02-18T17:03:52;10.50;99.90
35645;DHT22;21764;52.042;6.830;2023-02-18T17:08:53;10.50;99.90
35645;DHT22;21764;52.042;6.830;2023-02-18T17:13:54;10.60;99.90
35645;DHT22;21764;52.042;6.830;2023-02-18T17:18:57;10.60;99.90
35645;DHT22;21764;52.042;6.830;2023-02-18T17:23:58;10.60;99.90
35645;DHT22;21764;52.042;6.830;2023-02-18T17:28:59;10.60;99.90
35645;DHT22;21764;52.042;6.830;2023-02-18T17:34:03;10.60;99.90
35645;DHT22;21764;52.042;6.830;2023-02-18T17:39:13;10.50;99.90
35645;DHT22;21764;52.042;6.830;2023-02-18T17:44:19;10.50;99.90
35645;DHT22;21764;52.042;6.830;2023-02-18T17:49:20;10.50;99.90
35645;DHT22;21764;52.042;6.830;2023-02-18T17:54:21;10.50;99.90
35645;DHT22;21764;52.042;6.830;2023-02-18T17:59:23;10.50;99.90
35645;DHT22;21764;52.042;6.830;2023-02-18T18:04:24;10.40;99.90
35645;DHT22;21764;52.042;6.830;2023-02-18T18:09:24;10.30;99.90
35645;DHT22;21764;52.042;6.830;2023-02-18T18:14:25;10.40;99.90
35645;DHT22;21764;52.042;6.830;2023-02-18T18:19:27;10.30;99.90
35645;DHT22;21764;52.042;6.830;2023-02-18T18:24:27;10.30;99.90
35645;DHT22;21764;52.042;6.830;2023-02-18T18:29:28;10.20;99.90
35645;DHT22;21764;52.042;6.830;2023-02-18T18:34:29;10.00;99.90
35645;DHT22;21764;52.042;6.830;2023-02-18T18:39:29;10.00;99.90
35645;DHT22;21764;52.042;6.830;2023-02-18T18:44:30;9.90;99.90
35645;DHT22;21764;52.042;6.830;2023-02-18T18:49:32;9.90;99.90
35645;DHT22;21764;52.042;6.830;2023-02-18T18:54:32;10.00;99.90
35645;DHT22;21764;52.042;6.830;2023-02-18T18:59:33;10.10;99.90
35645;DHT22;21764;52.042;6.830;2023-02-18T19:04:34;10.30;99.90
35645;DHT22;21764;52.042;6.830;2023-02-18T19:09:34;10.40;99.90
35645;DHT22;21764;52.042;6.830;2023-02-18T19:14:35;10.40;99.90
35645;DHT22;21764;52.042;6.830;2023-02-18T19:19:36;10.40;99.90
35645;DHT22;21764;52.042;6.830;2023-02-18T19:24:36;10.40;99.90
35645;DHT22;21764;52.042;6.830;2023-02-18T19:29:37;10.40;99.90
35645;DHT22;21764;52.042;6.830;2023-02-18T19:34:37;10.40;99.90
35645;DHT22;21764;52.042;6.830;2023-02-18T19:39:38;10.40;99.90
35645;DHT22;21764;52.042;6.830;2023-02-18T19:44:39;10.40;99.90
35645;DHT22;21764;52.042;6.830;2023-02-18T19:49:39;10.40;99.90
35645;DHT22;21764;52.042;6.830;2023-02-18T19:54:40;10.50;99.90
35645;DHT22;21764;52.042;6.830;2023-02-18T19:59:40;10.40;99.90
35645;DHT22;21764;52.042;6.830;2023-02-18T20:04:42;10.40;99.90
35645;DHT22;21764;52.042;6.830;2023-02-18T20:09:43;10.40;99.90
35645;DHT22;21764;52.042;6.830;2023-02-18T20:14:44;10.40;99.90
35645;DHT22;21764;52.042;6.830;2023-02-18T20:19:45;10.50;99.90
35645;DHT22;21764;52.042;6.830;2023-02-18T20:24:45;10.40;99.90
35645;DHT22;21764;52.042;6.830;2023-02-18T20:29:47;10.40;99.90
35645;DHT22;21764;52.042;6.830;2023-02-18T20:34:48;10.40;99.90
35645;DHT22;21764;52.042;6.830;2023-02-18T20:39:48;10.30;99.90
35645;DHT22;21764;52.042;6.830;2023-02-18T20:44:49;10.40;99.90
35645;DHT22;21764;52.042;6.830;2023-02-18T20:49:51;10.30;99.90
35645;DHT22;21764;52.042;6.830;2023-02-18T20:54:51;10.40;99.90
35645;DHT22;21764;52.042;6.830;2023-02-18T20:59:52;10.30;99.90
35645;DHT22;21764;52.042;6.830;2023-02-18T21:04:54;10.30;99.90
35645;DHT22;21764;52.042;6.830;2023-02-18T21:09:54;10.40;99.90
35645;DHT22;21764;52.042;6.830;2023-02-18T21:14:55;10.30;99.90
35645;DHT22;21764;52.042;6.830;2023-02-18T21:19:56;10.20;99.90
35645;DHT22;21764;52.042;6.830;2023-02-18T21:24:56;10.20;99.90
35645;DHT22;21764;52.042;6.830;2023-02-18T21:29:59;10.30;99.90
35645;DHT22;21764;52.042;6.830;2023-02-18T21:35:00;10.20;99.90
35645;DHT22;21764;52.042;6.830;2023-02-18T21:40:00;10.20;99.90
35645;DHT22;21764;52.042;6.830;2023-02-18T21:45:01;10.20;99.90
35645;DHT22;21764;52.042;6.830;2023-02-18T21:50:04;10.20;99.90
35645;DHT22;21764;52.042;6.830;2023-02-18T21:55:05;10.20;99.90
35645;DHT22;21764;52.042;6.830;2023-02-18T22:00:07;10.10;99.90
35645;DHT22;21764;52.042;6.830;2023-02-18T22:05:08;10.10;99.90
35645;DHT22;21764;52.042;6.830;2023-02-18T22:10:09;10.20;99.90
35645;DHT22;21764;52.042;6.830;2023-02-18T22:15:10;10.20;99.90
35645;DHT22;21764;52.042;6.830;2023-02-18T22:20:11;10.10;99.90
35645;DHT22;21764;52.042;6.830;2023-02-18T22:25:11;10.20;99.90
35645;DHT22;21764;52.042;6.830;2023-02-18T22:30:12;10.10;99.90
35645;DHT22;21764;52.042;6.830;2023-02-18T22:35:13;10.10;99.90
35645;DHT22;21764;52.042;6.830;2023-02-18T22:40:13;10.20;99.90
35645;DHT22;21764;52.042;6.830;2023-02-18T22:45:14;10.20;99.90
35645;DHT22;21764;52.042;6.830;2023-02-18T22:50:15;10.20;99.90
35645;DHT22;21764;52.042;6.830;2023-02-18T22:55:16;10.10;99.90
35645;DHT22;21764;52.042;6.830;2023-02-18T23:00:17;10.10;99.90
35645;DHT22;21764;52.042;6.830;2023-02-18T23:05:18;10.10;99.90
35645;DHT22;21764;52.042;6.830;2023-02-18T23:10:19;10.10;99.90
35645;DHT22;21764;52.042;6.830;2023-02-18T23:15:20;10.10;99.90
35645;DHT22;21764;52.042;6.830;2023-02-18T23:20:21;10.10;99.90
35645;DHT22;21764;52.042;6.830;2023-02-18T23:25:41;10.20;99.90
35645;DHT22;21764;52.042;6.830;2023-02-18T23:30:44;10.30;99.90
35645;DHT22;21764;52.042;6.830;2023-02-18T23:35:45;10.30;99.90
35645;DHT22;21764;52.042;6.830;2023-02-18T23:40:45;10.30;99.90
35645;DHT22;21764;52.042;6.830;2023-02-18T23:45:46;10.30;99.90
35645;DHT22;21764;52.042;6.830;2023-02-18T23:50:47;10.30;99.90
35645;DHT22;21764;52.042;6.830;2023-02-18T23:55:47;10.40;99.90
